sensor_id;sensor_type;location;lat;lon;timestamp;pressure;altitude;pressure_sealevel;temperature;humidity
46211;BME280;52144;48.040;-1.594;2023-09-08T00:01:19;101013.97;;;26.53;84.27
46211;BME280;52144;48.040;-1.594;2023-09-08T00:03:47;101015.38;;;26.65;84.38
46211;BME280;52144;48.040;-1.594;2023-09-08T00:06:15;101018.81;;;26.67;83.99
46211;BME280;52144;48.040;-1.594;2023-09-08T00:08:43;101013.63;;;26.56;84.26
46211;BME280;52144;48.040;-1.594;2023-09-08T00:11:11;101016.31;;;26.39;84.87
46211;BME280;52144;48.040;-1.594;2023-09-08T00:13:40;101020.41;;;26.35;85.18
46211;BME280;52144;48.040;-1.594;2023-09-08T00:16:08;101015.97;;;26.34;84.91
46211;BME280;52144;48.040;-1.594;2023-09-08T00:18:36;101027.13;;;26.07;85.57
46211;BME280;52144;48.040;-1.594;2023-09-08T00:21:04;101028.13;;;25.97;86.63
46211;BME280;52144;48.040;-1.594;2023-09-08T00:23:32;101032.66;;;26.23;86.53
46211;BME280;52144;48.040;-1.594;2023-09-08T00:26:00;101026.56;;;26.37;84.79
46211;BME280;52144;48.040;-1.594;2023-09-08T00:28:28;101030.59;;;26.17;86.67
46211;BME280;52144;48.040;-1.594;2023-09-08T00:30:57;101019.56;;;25.92;87.01
46211;BME280;52144;48.040;-1.594;2023-09-08T00:33:26;101019.94;;;25.97;87.79
46211;BME280;52144;48.040;-1.594;2023-09-08T00:35:54;101027.53;;;26.20;86.17
46211;BME280;52144;48.040;-1.594;2023-09-08T00:38:24;101030.75;;;26.15;86.25
46211;BME280;52144;48.040;-1.594;2023-09-08T00:40:52;101019.59;;;26.00;86.25
46211;BME280;52144;48.040;-1.594;2023-09-08T00:43:19;101018.13;;;26.14;85.96
46211;BME280;52144;48.040;-1.594;2023-09-08T00:45:48;101019.81;;;26.15;85.76
46211;BME280;52144;48.040;-1.594;2023-09-08T00:48:18;101020.31;;;26.11;84.84
46211;BME280;52144;48.040;-1.594;2023-09-08T00:50:46;101013.44;;;25.98;85.85
46211;BME280;52144;48.040;-1.594;2023-09-08T00:53:14;101017.09;;;25.81;86.89
46211;BME280;52144;48.040;-1.594;2023-09-08T00:55:42;101014.28;;;25.99;86.42
46211;BME280;52144;48.040;-1.594;2023-09-08T00:58:11;101016.63;;;26.20;85.86
46211;BME280;52144;48.040;-1.594;2023-09-08T01:00:39;101018.72;;;26.34;84.68
46211;BME280;52144;48.040;-1.594;2023-09-08T01:03:07;101026.34;;;26.22;84.70
46211;BME280;52144;48.040;-1.594;2023-09-08T01:05:37;101025.22;;;25.99;85.88
46211;BME280;52144;48.040;-1.594;2023-09-08T01:08:05;101022.97;;;25.94;85.90
46211;BME280;52144;48.040;-1.594;2023-09-08T01:10:34;101019.88;;;25.89;84.95
46211;BME280;52144;48.040;-1.594;2023-09-08T01:13:04;101014.84;;;25.76;85.46
46211;BME280;52144;48.040;-1.594;2023-09-08T01:15:32;101020.44;;;26.01;84.94
46211;BME280;52144;48.040;-1.594;2023-09-08T01:17:59;101012.81;;;26.13;85.03
46211;BME280;52144;48.040;-1.594;2023-09-08T01:20:30;101008.53;;;26.02;85.78
46211;BME280;52144;48.040;-1.594;2023-09-08T01:23:13;101017.94;;;26.08;86.00
46211;BME280;52144;48.040;-1.594;2023-09-08T01:25:50;101018.38;;;25.95;86.26
46211;BME280;52144;48.040;-1.594;2023-09-08T01:28:20;101016.41;;;26.13;85.92
46211;BME280;52144;48.040;-1.594;2023-09-08T01:30:50;101010.13;;;26.21;84.91
46211;BME280;52144;48.040;-1.594;2023-09-08T01:33:19;101017.28;;;26.14;86.15
46211;BME280;52144;48.040;-1.594;2023-09-08T01:35:48;101015.94;;;26.18;86.27
46211;BME280;52144;48.040;-1.594;2023-09-08T01:38:16;101016.22;;;26.07;87.03
46211;BME280;52144;48.040;-1.594;2023-09-08T01:40:44;101019.97;;;26.06;86.69
46211;BME280;52144;48.040;-1.594;2023-09-08T01:43:13;101009.41;;;26.11;86.82
46211;BME280;52144;48.040;-1.594;2023-09-08T01:45:41;101010.41;;;26.01;86.73
46211;BME280;52144;48.040;-1.594;2023-09-08T01:48:09;101017.22;;;25.97;86.85
46211;BME280;52144;48.040;-1.594;2023-09-08T01:50:36;101011.41;;;26.00;87.06
46211;BME280;52144;48.040;-1.594;2023-09-08T01:53:04;101003.25;;;26.09;86.58
46211;BME280;52144;48.040;-1.594;2023-09-08T01:55:32;101002.28;;;26.18;85.98
46211;BME280;52144;48.040;-1.594;2023-09-08T01:58:00;101006.38;;;26.22;85.60
46211;BME280;52144;48.040;-1.594;2023-09-08T02:00:29;101004.28;;;26.08;86.57
46211;BME280;52144;48.040;-1.594;2023-09-08T02:02:57;101014.09;;;25.92;87.24
46211;BME280;52144;48.040;-1.594;2023-09-08T02:05:24;101002.75;;;25.79;87.76
46211;BME280;52144;48.040;-1.594;2023-09-08T02:07:53;101010.56;;;25.74;88.88
46211;BME280;52144;48.040;-1.594;2023-09-08T02:10:22;101007.00;;;25.73;88.44
46211;BME280;52144;48.040;-1.594;2023-09-08T02:12:50;101008.00;;;25.72;87.73
46211;BME280;52144;48.040;-1.594;2023-09-08T02:15:17;101013.44;;;25.72;87.66
46211;BME280;52144;48.040;-1.594;2023-09-08T02:17:49;101008.63;;;25.66;87.37
46211;BME280;52144;48.040;-1.594;2023-09-08T02:20:17;101004.38;;;25.63;87.81
46211;BME280;52144;48.040;-1.594;2023-09-08T02:22:44;101010.16;;;25.60;87.67
46211;BME280;52144;48.040;-1.594;2023-09-08T02:25:14;101005.03;;;25.57;87.58
46211;BME280;52144;48.040;-1.594;2023-09-08T02:27:42;101009.13;;;25.61;87.44
46211;BME280;52144;48.040;-1.594;2023-09-08T02:30:10;101009.63;;;25.57;87.83
46211;BME280;52144;48.040;-1.594;2023-09-08T02:32:38;101011.13;;;25.51;87.66
46211;BME280;52144;48.040;-1.594;2023-09-08T02:35:11;101015.06;;;25.31;87.92
46211;BME280;52144;48.040;-1.594;2023-09-08T02:37:39;101015.78;;;25.15;89.43
46211;BME280;52144;48.040;-1.594;2023-09-08T02:40:07;101012.91;;;25.16;90.88
46211;BME280;52144;48.040;-1.594;2023-09-08T02:42:35;101010.81;;;25.28;90.22
46211;BME280;52144;48.040;-1.594;2023-09-08T02:45:03;101010.28;;;25.51;89.72
46211;BME280;52144;48.040;-1.594;2023-09-08T02:47:31;101012.72;;;25.62;88.04
46211;BME280;52144;48.040;-1.594;2023-09-08T02:49:59;101011.13;;;25.51;89.31
46211;BME280;52144;48.040;-1.594;2023-09-08T02:52:28;101010.03;;;25.44;90.08
46211;BME280;52144;48.040;-1.594;2023-09-08T02:54:56;101005.97;;;25.48;90.11
46211;BME280;52144;48.040;-1.594;2023-09-08T02:57:24;101018.63;;;25.49;90.10
46211;BME280;52144;48.040;-1.594;2023-09-08T02:59:51;101003.09;;;25.50;89.89
46211;BME280;52144;48.040;-1.594;2023-09-08T03:02:24;100999.63;;;25.39;89.76
46211;BME280;52144;48.040;-1.594;2023-09-08T03:04:52;101014.00;;;25.23;90.76
46211;BME280;52144;48.040;-1.594;2023-09-08T03:07:20;100999.75;;;25.12;91.33
46211;BME280;52144;48.040;-1.594;2023-09-08T03:09:49;100998.31;;;25.26;90.17
46211;BME280;52144;48.040;-1.594;2023-09-08T03:12:16;100995.59;;;25.26;89.45
46211;BME280;52144;48.040;-1.594;2023-09-08T03:14:44;100991.78;;;25.18;89.12
46211;BME280;52144;48.040;-1.594;2023-09-08T03:17:12;100994.25;;;25.30;88.77
46211;BME280;52144;48.040;-1.594;2023-09-08T03:19:40;100991.97;;;25.43;88.82
46211;BME280;52144;48.040;-1.594;2023-09-08T03:22:08;101005.72;;;25.59;87.48
46211;BME280;52144;48.040;-1.594;2023-09-08T03:24:35;101009.19;;;25.70;87.81
46211;BME280;52144;48.040;-1.594;2023-09-08T03:27:05;101009.19;;;25.70;88.01
46211;BME280;52144;48.040;-1.594;2023-09-08T03:29:32;101006.94;;;25.65;86.88
46211;BME280;52144;48.040;-1.594;2023-09-08T03:32:00;101004.38;;;25.63;87.64
46211;BME280;52144;48.040;-1.594;2023-09-08T03:34:28;101010.91;;;25.71;87.32
46211;BME280;52144;48.040;-1.594;2023-09-08T03:36:56;101004.81;;;25.77;86.35
46211;BME280;52144;48.040;-1.594;2023-09-08T03:39:24;101001.75;;;25.54;88.21
46211;BME280;52144;48.040;-1.594;2023-09-08T03:41:52;100998.47;;;25.50;87.93
46211;BME280;52144;48.040;-1.594;2023-09-08T03:44:21;101002.78;;;25.53;88.67
46211;BME280;52144;48.040;-1.594;2023-09-08T03:46:49;100995.09;;;25.56;87.15
46211;BME280;52144;48.040;-1.594;2023-09-08T03:49:17;100994.00;;;25.41;88.84
46211;BME280;52144;48.040;-1.594;2023-09-08T03:51:45;100991.59;;;25.38;89.32
46211;BME280;52144;48.040;-1.594;2023-09-08T03:54:12;100993.94;;;25.33;88.97
46211;BME280;52144;48.040;-1.594;2023-09-08T03:56:40;100994.19;;;25.21;90.11
46211;BME280;52144;48.040;-1.594;2023-09-08T03:59:08;100994.44;;;25.28;89.98
46211;BME280;52144;48.040;-1.594;2023-09-08T04:01:37;100990.44;;;25.40;89.59
46211;BME280;52144;48.040;-1.594;2023-09-08T04:04:05;100997.09;;;25.46;88.04
46211;BME280;52144;48.040;-1.594;2023-09-08T04:06:33;100987.81;;;25.31;89.46
46211;BME280;52144;48.040;-1.594;2023-09-08T04:09:00;100990.75;;;25.19;90.14
46211;BME280;52144;48.040;-1.594;2023-09-08T04:11:28;100985.94;;;25.13;89.92
46211;BME280;52144;48.040;-1.594;2023-09-08T04:13:56;100985.78;;;25.15;90.31
46211;BME280;52144;48.040;-1.594;2023-09-08T04:16:25;100987.03;;;25.20;89.56
46211;BME280;52144;48.040;-1.594;2023-09-08T04:18:54;100982.28;;;25.22;90.24
46211;BME280;52144;48.040;-1.594;2023-09-08T04:21:23;100980.47;;;25.31;89.42
46211;BME280;52144;48.040;-1.594;2023-09-08T04:23:50;100984.50;;;25.45;88.37
46211;BME280;52144;48.040;-1.594;2023-09-08T04:26:18;100988.75;;;25.48;87.96
46211;BME280;52144;48.040;-1.594;2023-09-08T04:28:46;100993.06;;;25.58;87.91
46211;BME280;52144;48.040;-1.594;2023-09-08T04:31:14;100993.41;;;25.55;86.80
46211;BME280;52144;48.040;-1.594;2023-09-08T04:33:43;100989.50;;;25.32;87.91
46211;BME280;52144;48.040;-1.594;2023-09-08T04:36:12;100992.03;;;25.07;88.09
46211;BME280;52144;48.040;-1.594;2023-09-08T04:38:40;100989.56;;;24.96;89.21
46211;BME280;52144;48.040;-1.594;2023-09-08T04:41:08;100991.75;;;24.92;88.68
46211;BME280;52144;48.040;-1.594;2023-09-08T04:43:36;100989.41;;;24.79;89.95
46211;BME280;52144;48.040;-1.594;2023-09-08T04:46:03;100978.59;;;24.70;90.33
46211;BME280;52144;48.040;-1.594;2023-09-08T04:48:31;100987.53;;;24.62;90.61
46211;BME280;52144;48.040;-1.594;2023-09-08T04:51:01;100981.81;;;24.65;90.58
46211;BME280;52144;48.040;-1.594;2023-09-08T04:53:30;100979.44;;;24.70;90.40
46211;BME280;52144;48.040;-1.594;2023-09-08T04:55:59;100978.97;;;24.75;89.00
46211;BME280;52144;48.040;-1.594;2023-09-08T04:58:27;100989.34;;;24.71;89.27
46211;BME280;52144;48.040;-1.594;2023-09-08T05:00:55;100981.25;;;24.61;89.57
46211;BME280;52144;48.040;-1.594;2023-09-08T05:03:23;100977.50;;;24.62;90.28
46211;BME280;52144;48.040;-1.594;2023-09-08T05:05:52;100982.94;;;24.62;90.99
46211;BME280;52144;48.040;-1.594;2023-09-08T05:08:20;100987.13;;;24.75;90.41
46211;BME280;52144;48.040;-1.594;2023-09-08T05:10:50;100986.38;;;24.82;90.42
46211;BME280;52144;48.040;-1.594;2023-09-08T05:13:17;100985.22;;;24.67;89.60
46211;BME280;52144;48.040;-1.594;2023-09-08T05:15:57;100992.63;;;24.57;90.69
46211;BME280;52144;48.040;-1.594;2023-09-08T05:18:26;100989.34;;;24.53;89.55
46211;BME280;52144;48.040;-1.594;2023-09-08T05:20:54;100993.75;;;24.36;90.76
46211;BME280;52144;48.040;-1.594;2023-09-08T05:23:22;100982.53;;;24.39;91.07
46211;BME280;52144;48.040;-1.594;2023-09-08T05:25:51;100984.44;;;24.57;90.78
46211;BME280;52144;48.040;-1.594;2023-09-08T05:28:19;100988.00;;;24.57;89.34
46211;BME280;52144;48.040;-1.594;2023-09-08T05:30:47;100987.88;;;24.59;90.13
46211;BME280;52144;48.040;-1.594;2023-09-08T05:33:14;100985.22;;;24.67;90.46
46211;BME280;52144;48.040;-1.594;2023-09-08T05:35:43;100991.44;;;24.59;91.19
46211;BME280;52144;48.040;-1.594;2023-09-08T05:38:11;100996.97;;;24.68;91.25
46211;BME280;52144;48.040;-1.594;2023-09-08T05:40:39;100998.84;;;24.67;89.67
46211;BME280;52144;48.040;-1.594;2023-09-08T05:43:08;100991.50;;;24.50;90.45
46211;BME280;52144;48.040;-1.594;2023-09-08T05:45:36;100998.84;;;24.39;91.36
46211;BME280;52144;48.040;-1.594;2023-09-08T05:48:04;100999.22;;;24.54;91.74
46211;BME280;52144;48.040;-1.594;2023-09-08T05:50:32;101000.47;;;24.60;91.31
46211;BME280;52144;48.040;-1.594;2023-09-08T05:53:00;101004.22;;;24.59;91.18
46211;BME280;52144;48.040;-1.594;2023-09-08T05:55:27;101005.63;;;24.63;91.04
46211;BME280;52144;48.040;-1.594;2023-09-08T05:57:55;101004.22;;;24.59;91.51
46211;BME280;52144;48.040;-1.594;2023-09-08T06:00:24;101015.28;;;24.75;91.07
46211;BME280;52144;48.040;-1.594;2023-09-08T06:02:52;101012.28;;;24.87;92.53
46211;BME280;52144;48.040;-1.594;2023-09-08T06:05:20;101010.66;;;25.12;90.27
46211;BME280;52144;48.040;-1.594;2023-09-08T06:07:48;101010.66;;;25.12;89.76
46211;BME280;52144;48.040;-1.594;2023-09-08T06:10:31;101016.63;;;25.15;90.79
46211;BME280;52144;48.040;-1.594;2023-09-08T06:12:59;101018.16;;;25.36;90.33
46211;BME280;52144;48.040;-1.594;2023-09-08T06:15:29;101018.13;;;25.54;89.24
46211;BME280;52144;48.040;-1.594;2023-09-08T06:17:57;101014.84;;;25.76;87.41
46211;BME280;52144;48.040;-1.594;2023-09-08T06:20:25;101023.31;;;25.91;86.86
46211;BME280;52144;48.040;-1.594;2023-09-08T06:22:53;101031.59;;;26.08;85.81
46211;BME280;52144;48.040;-1.594;2023-09-08T06:25:21;101023.41;;;26.08;85.82
46211;BME280;52144;48.040;-1.594;2023-09-08T06:27:49;101035.25;;;25.90;87.44
46211;BME280;52144;48.040;-1.594;2023-09-08T06:30:17;101026.34;;;25.88;87.56
46211;BME280;52144;48.040;-1.594;2023-09-08T06:32:47;101028.97;;;25.72;87.69
46211;BME280;52144;48.040;-1.594;2023-09-08T06:35:15;101027.44;;;25.43;88.59
46211;BME280;52144;48.040;-1.594;2023-09-08T06:37:42;101039.22;;;25.26;89.81
46211;BME280;52144;48.040;-1.594;2023-09-08T06:40:10;101045.00;;;25.22;89.31
46211;BME280;52144;48.040;-1.594;2023-09-08T06:42:38;101037.19;;;25.28;89.31
46211;BME280;52144;48.040;-1.594;2023-09-08T06:45:07;101037.44;;;25.16;90.70
46211;BME280;52144;48.040;-1.594;2023-09-08T06:47:35;101036.91;;;25.31;90.17
46211;BME280;52144;48.040;-1.594;2023-09-08T06:50:05;101021.53;;;25.30;90.04
46211;BME280;52144;48.040;-1.594;2023-09-08T06:52:34;101037.22;;;25.54;89.25
46211;BME280;52144;48.040;-1.594;2023-09-08T06:55:02;101034.09;;;25.67;88.21
46211;BME280;52144;48.040;-1.594;2023-09-08T06:57:31;101035.47;;;25.71;88.46
46211;BME280;52144;48.040;-1.594;2023-09-08T06:59:59;101042.88;;;25.87;88.62
46211;BME280;52144;48.040;-1.594;2023-09-08T07:02:27;101053.34;;;25.91;87.25
46211;BME280;52144;48.040;-1.594;2023-09-08T07:04:55;101053.06;;;26.02;86.97
46211;BME280;52144;48.040;-1.594;2023-09-08T07:07:24;101049.09;;;25.97;87.85
46211;BME280;52144;48.040;-1.594;2023-09-08T07:09:52;101054.44;;;26.07;87.42
46211;BME280;52144;48.040;-1.594;2023-09-08T07:12:20;101045.16;;;25.91;87.63
46211;BME280;52144;48.040;-1.594;2023-09-08T07:14:46;101052.00;;;25.95;88.22
46211;BME280;52144;48.040;-1.594;2023-09-08T07:17:14;101056.44;;;25.96;87.84
46211;BME280;52144;48.040;-1.594;2023-09-08T07:19:42;101056.06;;;26.26;87.69
46211;BME280;52144;48.040;-1.594;2023-09-08T07:22:10;101057.25;;;26.31;86.25
46211;BME280;52144;48.040;-1.594;2023-09-08T07:24:39;101060.41;;;26.53;87.17
46211;BME280;52144;48.040;-1.594;2023-09-08T07:27:07;101045.66;;;26.96;84.63
46211;BME280;52144;48.040;-1.594;2023-09-08T07:29:35;101052.34;;;27.27;83.98
46211;BME280;52144;48.040;-1.594;2023-09-08T07:32:04;101054.38;;;27.57;82.78
46211;BME280;52144;48.040;-1.594;2023-09-08T07:34:31;101057.50;;;27.38;84.37
46211;BME280;52144;48.040;-1.594;2023-09-08T07:37:00;101053.31;;;27.75;85.14
46211;BME280;52144;48.040;-1.594;2023-09-08T07:39:28;101057.59;;;27.77;85.78
46211;BME280;52144;48.040;-1.594;2023-09-08T07:41:58;101058.06;;;28.06;84.08
46211;BME280;52144;48.040;-1.594;2023-09-08T07:44:27;101051.63;;;27.66;85.79
46211;BME280;52144;48.040;-1.594;2023-09-08T07:46:55;101051.25;;;27.85;86.51
46211;BME280;52144;48.040;-1.594;2023-09-08T07:49:23;101054.47;;;28.05;85.16
46211;BME280;52144;48.040;-1.594;2023-09-08T07:51:51;101058.75;;;27.99;86.84
46211;BME280;52144;48.040;-1.594;2023-09-08T07:54:19;101058.13;;;27.89;87.68
46211;BME280;52144;48.040;-1.594;2023-09-08T07:56:46;101057.59;;;28.33;85.68
46211;BME280;52144;48.040;-1.594;2023-09-08T07:59:16;101065.81;;;28.33;87.09
46211;BME280;52144;48.040;-1.594;2023-09-08T08:01:44;101055.53;;;29.21;81.87
46211;BME280;52144;48.040;-1.594;2023-09-08T08:04:11;101058.72;;;29.48;79.92
46211;BME280;52144;48.040;-1.594;2023-09-08T08:06:39;101069.13;;;29.52;78.52
46211;BME280;52144;48.040;-1.594;2023-09-08T08:09:07;101063.94;;;29.57;78.80
46211;BME280;52144;48.040;-1.594;2023-09-08T08:11:35;101060.56;;;29.70;76.90
46211;BME280;52144;48.040;-1.594;2023-09-08T08:14:03;101070.25;;;29.81;77.29
46211;BME280;52144;48.040;-1.594;2023-09-08T08:16:32;101068.56;;;29.80;78.94
46211;BME280;52144;48.040;-1.594;2023-09-08T08:19:00;101071.00;;;29.75;78.53
46211;BME280;52144;48.040;-1.594;2023-09-08T08:21:27;101068.25;;;29.90;78.58
46211;BME280;52144;48.040;-1.594;2023-09-08T08:23:56;101069.78;;;29.92;78.18
46211;BME280;52144;48.040;-1.594;2023-09-08T08:26:24;101073.38;;;29.93;77.81
46211;BME280;52144;48.040;-1.594;2023-09-08T08:28:55;101072.13;;;29.95;77.75
46211;BME280;52144;48.040;-1.594;2023-09-08T08:31:22;101080.19;;;30.12;77.69
46211;BME280;52144;48.040;-1.594;2023-09-08T08:33:52;101082.41;;;30.31;77.24
46211;BME280;52144;48.040;-1.594;2023-09-08T08:36:20;101082.75;;;30.43;76.35
46211;BME280;52144;48.040;-1.594;2023-09-08T08:38:48;101087.78;;;30.10;76.87
46211;BME280;52144;48.040;-1.594;2023-09-08T08:41:16;101084.88;;;29.58;79.19
46211;BME280;52144;48.040;-1.594;2023-09-08T08:43:44;101085.78;;;29.74;78.93
46211;BME280;52144;48.040;-1.594;2023-09-08T08:46:14;101089.84;;;29.40;80.21
46211;BME280;52144;48.040;-1.594;2023-09-08T08:48:42;101088.34;;;29.52;80.24
46211;BME280;52144;48.040;-1.594;2023-09-08T08:51:14;101085.69;;;29.44;81.11
46211;BME280;52144;48.040;-1.594;2023-09-08T08:53:44;101077.03;;;29.32;81.01
46211;BME280;52144;48.040;-1.594;2023-09-08T08:56:11;101097.81;;;29.27;82.87
46211;BME280;52144;48.040;-1.594;2023-09-08T08:58:39;101089.19;;;29.76;81.16
46211;BME280;52144;48.040;-1.594;2023-09-08T09:01:10;101095.56;;;30.21;78.51
46211;BME280;52144;48.040;-1.594;2023-09-08T09:03:39;101085.41;;;30.22;78.17
46211;BME280;52144;48.040;-1.594;2023-09-08T09:06:07;101094.38;;;30.60;75.88
46211;BME280;52144;48.040;-1.594;2023-09-08T09:08:39;101094.97;;;30.26;78.18
46211;BME280;52144;48.040;-1.594;2023-09-08T09:11:07;101090.84;;;30.66;75.83
46211;BME280;52144;48.040;-1.594;2023-09-08T09:13:35;101098.91;;;30.68;76.41
46211;BME280;52144;48.040;-1.594;2023-09-08T09:16:04;101094.41;;;30.82;76.19
46211;BME280;52144;48.040;-1.594;2023-09-08T09:18:34;101090.16;;;30.94;74.94
46211;BME280;52144;48.040;-1.594;2023-09-08T09:21:09;101090.53;;;30.91;74.68
46211;BME280;52144;48.040;-1.594;2023-09-08T09:23:38;101085.78;;;30.85;75.79
46211;BME280;52144;48.040;-1.594;2023-09-08T09:26:05;101081.91;;;30.79;75.27
46211;BME280;52144;48.040;-1.594;2023-09-08T09:28:33;101076.47;;;31.01;75.74
46211;BME280;52144;48.040;-1.594;2023-09-08T09:31:02;101075.75;;;30.92;74.60
46211;BME280;52144;48.040;-1.594;2023-09-08T09:33:29;101073.09;;;31.05;74.03
46211;BME280;52144;48.040;-1.594;2023-09-08T09:35:57;101066.09;;;30.66;77.51
46211;BME280;52144;48.040;-1.594;2023-09-08T09:38:27;101073.84;;;30.92;76.06
46211;BME280;52144;48.040;-1.594;2023-09-08T09:40:56;101072.59;;;30.95;76.57
46211;BME280;52144;48.040;-1.594;2023-09-08T09:43:27;101075.72;;;31.35;75.06
46211;BME280;52144;48.040;-1.594;2023-09-08T09:45:55;101071.94;;;31.14;75.76
46211;BME280;52144;48.040;-1.594;2023-09-08T09:48:23;101068.25;;;31.29;75.46
46211;BME280;52144;48.040;-1.594;2023-09-08T09:50:51;101074.31;;;30.96;75.80
46211;BME280;52144;48.040;-1.594;2023-09-08T09:53:20;101074.81;;;31.06;75.72
46211;BME280;52144;48.040;-1.594;2023-09-08T09:55:48;101070.22;;;31.13;76.42
46211;BME280;52144;48.040;-1.594;2023-09-08T09:58:18;101074.81;;;31.06;75.71
46211;BME280;52144;48.040;-1.594;2023-09-08T10:00:49;101078.13;;;31.02;75.60
46211;BME280;52144;48.040;-1.594;2023-09-08T10:03:18;101078.22;;;31.08;75.90
46211;BME280;52144;48.040;-1.594;2023-09-08T10:05:47;101075.97;;;31.62;72.45
46211;BME280;52144;48.040;-1.594;2023-09-08T10:08:16;101075.31;;;31.38;73.93
46211;BME280;52144;48.040;-1.594;2023-09-08T10:10:45;101081.03;;;31.65;72.55
46211;BME280;52144;48.040;-1.594;2023-09-08T10:13:19;101080.63;;;31.18;74.44
46211;BME280;52144;48.040;-1.594;2023-09-08T10:15:52;101083.06;;;31.28;73.30
46211;BME280;52144;48.040;-1.594;2023-09-08T10:18:20;101078.22;;;31.08;73.33
46211;BME280;52144;48.040;-1.594;2023-09-08T10:20:51;101079.78;;;31.39;73.27
46211;BME280;52144;48.040;-1.594;2023-09-08T10:23:23;101084.41;;;31.38;73.62
46211;BME280;52144;48.040;-1.594;2023-09-08T10:25:53;101082.66;;;31.52;72.02
46211;BME280;52144;48.040;-1.594;2023-09-08T10:28:27;101074.69;;;31.92;69.81
46211;BME280;52144;48.040;-1.594;2023-09-08T10:30:56;101083.50;;;32.16;70.26
46211;BME280;52144;48.040;-1.594;2023-09-08T10:33:25;101076.47;;;32.00;69.60
46211;BME280;52144;48.040;-1.594;2023-09-08T10:35:53;101074.69;;;31.92;71.10
46211;BME280;52144;48.040;-1.594;2023-09-08T10:38:23;101067.13;;;31.73;71.19
46211;BME280;52144;48.040;-1.594;2023-09-08T10:40:51;101074.25;;;31.61;72.66
46211;BME280;52144;48.040;-1.594;2023-09-08T10:43:19;101066.75;;;32.11;70.82
46211;BME280;52144;48.040;-1.594;2023-09-08T10:45:50;101071.06;;;32.27;69.47
46211;BME280;52144;48.040;-1.594;2023-09-08T10:48:19;101074.97;;;32.46;70.06
46211;BME280;52144;48.040;-1.594;2023-09-08T10:50:47;101079.75;;;32.78;67.88
46211;BME280;52144;48.040;-1.594;2023-09-08T10:53:16;101073.91;;;33.08;66.31
46211;BME280;52144;48.040;-1.594;2023-09-08T10:55:45;101072.22;;;33.27;65.23
46211;BME280;52144;48.040;-1.594;2023-09-08T10:58:36;101064.16;;;33.12;64.73
46211;BME280;52144;48.040;-1.594;2023-09-08T11:01:07;101068.53;;;32.73;65.82
46211;BME280;52144;48.040;-1.594;2023-09-08T11:03:45;101067.44;;;32.68;65.74
46211;BME280;52144;48.040;-1.594;2023-09-08T11:06:16;101067.91;;;32.85;65.74
46211;BME280;52144;48.040;-1.594;2023-09-08T11:08:46;101068.97;;;32.97;65.26
46211;BME280;52144;48.040;-1.594;2023-09-08T11:11:15;101074.16;;;33.20;63.38
46211;BME280;52144;48.040;-1.594;2023-09-08T11:13:44;101078.63;;;33.54;65.52
46211;BME280;52144;48.040;-1.594;2023-09-08T11:16:15;101076.03;;;33.40;63.67
46211;BME280;52144;48.040;-1.594;2023-09-08T11:18:51;101079.47;;;33.48;64.09
46211;BME280;52144;48.040;-1.594;2023-09-08T11:21:19;101082.22;;;33.42;62.57
46211;BME280;52144;48.040;-1.594;2023-09-08T11:23:47;101065.84;;;33.53;63.71
46211;BME280;52144;48.040;-1.594;2023-09-08T11:26:15;101066.50;;;33.62;62.16
46211;BME280;52144;48.040;-1.594;2023-09-08T11:28:43;101074.75;;;33.09;63.91
46211;BME280;52144;48.040;-1.594;2023-09-08T11:31:16;101063.31;;;33.45;63.39
46211;BME280;52144;48.040;-1.594;2023-09-08T11:33:43;101067.59;;;33.61;62.98
46211;BME280;52144;48.040;-1.594;2023-09-08T11:36:12;101073.53;;;33.65;62.03
46211;BME280;52144;48.040;-1.594;2023-09-08T11:38:46;101075.84;;;33.41;62.91
46211;BME280;52144;48.040;-1.594;2023-09-08T11:41:14;101076.25;;;33.38;64.22
46211;BME280;52144;48.040;-1.594;2023-09-08T11:43:42;101077.75;;;33.61;62.63
46211;BME280;52144;48.040;-1.594;2023-09-08T11:46:10;101064.31;;;33.91;62.34
46211;BME280;52144;48.040;-1.594;2023-09-08T11:48:41;101071.09;;;34.15;61.58
46211;BME280;52144;48.040;-1.594;2023-09-08T11:51:10;101074.91;;;34.21;59.69
46211;BME280;52144;48.040;-1.594;2023-09-08T11:53:38;101072.47;;;34.37;59.73
46211;BME280;52144;48.040;-1.594;2023-09-08T11:56:06;101073.19;;;34.26;59.79
46211;BME280;52144;48.040;-1.594;2023-09-08T11:58:34;101072.56;;;34.24;60.16
46211;BME280;52144;48.040;-1.594;2023-09-08T12:01:03;101069.44;;;33.54;60.06
46211;BME280;52144;48.040;-1.594;2023-09-08T12:03:32;101075.00;;;33.74;59.75
46211;BME280;52144;48.040;-1.594;2023-09-08T12:06:01;101069.75;;;32.64;61.84
46211;BME280;52144;48.040;-1.594;2023-09-08T12:08:30;101064.50;;;32.83;64.42
46211;BME280;52144;48.040;-1.594;2023-09-08T12:10:58;101064.16;;;33.46;62.68
46211;BME280;52144;48.040;-1.594;2023-09-08T12:13:26;101074.53;;;33.90;60.88
46211;BME280;52144;48.040;-1.594;2023-09-08T12:15:53;101067.97;;;33.78;61.19
46211;BME280;52144;48.040;-1.594;2023-09-08T12:18:37;101067.47;;;34.08;60.68
46211;BME280;52144;48.040;-1.594;2023-09-08T12:21:07;101069.72;;;34.37;59.49
46211;BME280;52144;48.040;-1.594;2023-09-08T12:23:47;101067.72;;;33.93;59.66
46211;BME280;52144;48.040;-1.594;2023-09-08T12:26:15;101065.47;;;34.80;57.41
46211;BME280;52144;48.040;-1.594;2023-09-08T12:28:44;101059.72;;;35.13;57.59
46211;BME280;52144;48.040;-1.594;2023-09-08T12:31:14;101051.66;;;34.80;56.80
46211;BME280;52144;48.040;-1.594;2023-09-08T12:33:43;101049.50;;;35.14;58.21
46211;BME280;52144;48.040;-1.594;2023-09-08T12:36:13;101042.88;;;35.22;55.92
46211;BME280;52144;48.040;-1.594;2023-09-08T12:38:46;101042.19;;;35.26;55.65
46211;BME280;52144;48.040;-1.594;2023-09-08T12:41:14;101041.34;;;35.26;56.22
46211;BME280;52144;48.040;-1.594;2023-09-08T12:43:42;101038.25;;;35.09;55.13
46211;BME280;52144;48.040;-1.594;2023-09-08T12:46:10;101036.91;;;35.43;55.45
46211;BME280;52144;48.040;-1.594;2023-09-08T12:48:38;101030.53;;;34.86;52.20